Time;durP1;ratioP1;P1;durP2;ratioP2;P2;SDS_P1;SDS_P2;PMS_P1;PMS_P2;Temp;Humidity;BMP_temperature;BMP_pressure;BME280_temperature;BME280_humidity;BME280_pressure;Samples;Min_cycle;Max_cycle;Signal;HPM_P1;HPM_P2
2023/03/15 00:01:54;;;;;;;;;;;11.00;89.90;;;;;;5105133;28;20044;-92
2023/03/15 00:04:20;;;;;;;;;;;11.00;90.20;;;;;;5112447;28;20078;-91
2023/03/15 00:06:45;;;;;;;;;;;11.00;90.10;;;;;;5096617;28;20042;-91
2023/03/15 00:09:11;;;;;;;;;;;10.90;89.80;;;;;;5096671;28;19936;-91
2023/03/15 00:11:37;;;;;;;;;;;10.90;89.80;;;;;;5104944;28;20030;-91
2023/03/15 00:14:02;;;;;;;;;;;10.90;89.70;;;;;;5117008;28;19938;-90
2023/03/15 00:16:28;;;;;;;;;;;10.70;89.40;;;;;;5116823;28;19940;-90
2023/03/15 00:18:54;;;;;;;;;;;10.60;89.40;;;;;;5116801;28;19984;-91
2023/03/15 00:21:19;;;;;;;;;;;10.50;90.10;;;;;;5110149;28;19945;-90
2023/03/15 00:23:45;;;;;;;;;;;10.40;90.50;;;;;;5096300;28;19943;-90
2023/03/15 00:26:11;;;;;;;;;;;10.40;90.90;;;;;;5096228;28;20059;-91
2023/03/15 00:28:36;;;;;;;;;;;10.30;91.40;;;;;;5096210;28;19936;-91
2023/03/15 00:31:05;;;;;;;;;;;10.30;91.70;;;;;;5096060;28;20051;-91
2023/03/15 00:33:33;;;;;;;;;;;10.20;91.90;;;;;;5096134;28;19948;-91
2023/03/15 00:36:01;;;;;;;;;;;10.10;91.80;;;;;;5096048;28;19981;-91
2023/03/15 00:38:27;;;;;;;;;;;10.10;91.60;;;;;;5096045;28;20343;-92
2023/03/15 00:40:52;;;;;;;;;;;10.10;91.60;;;;;;5097939;28;20030;-91
2023/03/15 00:43:18;;;;;;;;;;;10.10;91.90;;;;;;5116051;28;19955;-92
2023/03/15 00:45:44;;;;;;;;;;;10.10;92.10;;;;;;5116288;28;20445;-91
2023/03/15 00:48:09;;;;;;;;;;;10.10;92.00;;;;;;5116272;28;20024;-92
2023/03/15 00:50:35;;;;;;;;;;;10.00;92.00;;;;;;5116220;28;19982;-90
2023/03/15 00:53:00;;;;;;;;;;;10.00;92.00;;;;;;5096054;28;20451;-91
2023/03/15 00:55:26;;;;;;;;;;;10.10;92.20;;;;;;5095843;28;19946;-91
2023/03/15 00:57:51;;;;;;;;;;;10.00;92.30;;;;;;5095745;28;20353;-91
2023/03/15 01:00:19;;;;;;;;;;;10.00;92.30;;;;;;5094970;28;20011;-90
2023/03/15 01:02:45;;;;;;;;;;;10.00;92.30;;;;;;5077726;28;19945;-91
2023/03/15 01:05:10;;;;;;;;;;;10.00;92.40;;;;;;5095257;28;19977;-91
2023/03/15 01:07:38;;;;;;;;;;;10.00;92.40;;;;;;5095061;28;20268;-90
2023/03/15 01:10:04;;;;;;;;;;;10.00;92.50;;;;;;5077337;28;20049;-91
2023/03/15 01:12:34;;;;;;;;;;;10.00;92.40;;;;;;5110515;28;19994;-92
2023/03/15 01:15:00;;;;;;;;;;;10.00;92.50;;;;;;5115746;28;19948;-90
2023/03/15 01:17:26;;;;;;;;;;;9.90;92.70;;;;;;5115539;28;19989;-91
2023/03/15 01:19:52;;;;;;;;;;;9.90;92.90;;;;;;5115685;28;20352;-91
2023/03/15 01:22:18;;;;;;;;;;;9.90;92.90;;;;;;5102128;28;19997;-91
2023/03/15 01:24:43;;;;;;;;;;;9.90;93.00;;;;;;5095169;28;19940;-91
2023/03/15 01:27:09;;;;;;;;;;;9.90;93.10;;;;;;5110814;28;19963;-92
2023/03/15 01:29:35;;;;;;;;;;;9.90;93.10;;;;;;5109721;28;20398;-91
2023/03/15 01:32:00;;;;;;;;;;;9.80;93.20;;;;;;5115502;28;19954;-91
2023/03/15 01:34:26;;;;;;;;;;;9.80;93.20;;;;;;5115535;28;19960;-91
2023/03/15 01:36:52;;;;;;;;;;;9.80;93.30;;;;;;5115429;28;20320;-91
2023/03/15 01:39:18;;;;;;;;;;;9.80;93.50;;;;;;5102803;28;20091;-90
2023/03/15 01:41:43;;;;;;;;;;;9.80;93.80;;;;;;5095157;28;20413;-91
2023/03/15 01:44:11;;;;;;;;;;;9.80;94.10;;;;;;5094810;28;20353;-90
2023/03/15 01:46:36;;;;;;;;;;;9.90;94.20;;;;;;5094793;28;19965;-90
2023/03/15 01:49:08;;;;;;;;;;;9.80;94.10;;;;;;5103985;28;19943;-90
2023/03/15 01:51:45;;;;;;;;;;;9.80;94.00;;;;;;5114638;28;19953;-91
2023/03/15 01:54:17;;;;;;;;;;;9.80;94.20;;;;;;5114812;28;19965;-91
2023/03/15 01:56:49;;;;;;;;;;;9.90;94.30;;;;;;5114880;28;19942;-92
2023/03/15 01:59:17;;;;;;;;;;;9.90;94.30;;;;;;5109012;28;19940;-90
2023/03/15 02:01:44;;;;;;;;;;;9.90;94.30;;;;;;5114656;28;19946;-91
2023/03/15 02:04:11;;;;;;;;;;;9.90;94.40;;;;;;5114729;28;19977;-91
2023/03/15 02:06:37;;;;;;;;;;;9.90;94.30;;;;;;5114647;28;20078;-91
2023/03/15 02:09:13;;;;;;;;;;;9.90;94.40;;;;;;5114265;28;20423;-91
2023/03/15 02:11:38;;;;;;;;;;;9.90;94.40;;;;;;5113611;28;19940;-91
2023/03/15 02:14:04;;;;;;;;;;;9.90;94.50;;;;;;5114544;28;20025;-91
2023/03/15 02:16:30;;;;;;;;;;;9.90;94.50;;;;;;5114769;28;19988;-90
2023/03/15 02:18:55;;;;;;;;;;;9.90;94.60;;;;;;5113479;28;20392;-90
2023/03/15 02:21:21;;;;;;;;;;;9.90;94.60;;;;;;5114179;28;19950;-91
2023/03/15 02:23:50;;;;;;;;;;;9.90;94.70;;;;;;5096096;28;19941;-90
2023/03/15 02:26:23;;;;;;;;;;;9.90;94.70;;;;;;5114224;28;20003;-91
2023/03/15 02:28:50;;;;;;;;;;;9.90;94.70;;;;;;5113474;28;20044;-90
2023/03/15 02:31:16;;;;;;;;;;;9.90;94.80;;;;;;5114243;28;19949;-90
2023/03/15 02:33:47;;;;;;;;;;;9.80;94.80;;;;;;5112482;28;19944;-91
2023/03/15 02:36:19;;;;;;;;;;;9.80;94.90;;;;;;5114095;28;19953;-91
2023/03/15 02:38:45;;;;;;;;;;;9.70;95.00;;;;;;5107422;28;20307;-91
2023/03/15 02:41:11;;;;;;;;;;;9.70;95.00;;;;;;5093712;28;19947;-90
2023/03/15 02:43:37;;;;;;;;;;;9.70;95.20;;;;;;5093641;28;19935;-90
2023/03/15 02:46:02;;;;;;;;;;;9.60;95.20;;;;;;5093504;28;19961;-90
2023/03/15 02:48:30;;;;;;;;;;;9.60;95.30;;;;;;5097124;28;20418;-90
2023/03/15 02:50:56;;;;;;;;;;;9.50;95.30;;;;;;5113840;28;19950;-90
2023/03/15 02:53:21;;;;;;;;;;;9.50;95.30;;;;;;5113769;28;19955;-90
2023/03/15 02:55:47;;;;;;;;;;;9.40;95.40;;;;;;5107956;28;19938;-90
2023/03/15 02:58:13;;;;;;;;;;;9.40;95.40;;;;;;5093421;28;19948;-90
2023/03/15 03:00:38;;;;;;;;;;;9.40;95.60;;;;;;5097123;28;19942;-90
2023/03/15 03:03:04;;;;;;;;;;;9.40;95.60;;;;;;5093146;28;20384;-90
2023/03/15 03:05:29;;;;;;;;;;;9.30;95.70;;;;;;5113972;28;20502;-90
2023/03/15 03:07:55;;;;;;;;;;;9.30;95.80;;;;;;5113628;28;19991;-90
2023/03/15 03:10:21;;;;;;;;;;;9.30;95.90;;;;;;5113654;28;19952;-90
2023/03/15 03:12:46;;;;;;;;;;;9.30;95.90;;;;;;5113946;28;20412;-90
2023/03/15 03:15:12;;;;;;;;;;;9.30;96.00;;;;;;5077315;28;19990;-91
2023/03/15 03:17:38;;;;;;;;;;;9.30;96.10;;;;;;5093427;28;19951;-91
2023/03/15 03:20:09;;;;;;;;;;;9.40;96.20;;;;;;5093411;28;20443;-91
2023/03/15 03:22:35;;;;;;;;;;;9.30;96.10;;;;;;5094898;28;19945;-90
2023/03/15 03:25:01;;;;;;;;;;;9.20;96.10;;;;;;5112998;28;19947;-90
2023/03/15 03:27:26;;;;;;;;;;;9.30;96.20;;;;;;5118039;28;19947;-90
2023/03/15 03:29:52;;;;;;;;;;;9.30;96.20;;;;;;5117716;28;19948;-90
2023/03/15 03:32:17;;;;;;;;;;;9.30;96.20;;;;;;5117735;28;19963;-91
2023/03/15 03:34:47;;;;;;;;;;;9.30;96.10;;;;;;5104152;28;19949;-90
2023/03/15 03:37:19;;;;;;;;;;;9.30;96.20;;;;;;5097401;28;20015;-90
2023/03/15 03:39:45;;;;;;;;;;;9.40;96.20;;;;;;5097154;28;20390;-90
2023/03/15 03:42:11;;;;;;;;;;;9.30;96.20;;;;;;5097102;28;19948;-90
2023/03/15 03:44:36;;;;;;;;;;;9.30;96.20;;;;;;5108789;28;19954;-90
2023/03/15 03:47:02;;;;;;;;;;;9.30;96.30;;;;;;5117326;28;20465;-90
2023/03/15 03:49:27;;;;;;;;;;;9.30;96.30;;;;;;5117399;28;19953;-90
2023/03/15 03:51:53;;;;;;;;;;;9.30;96.30;;;;;;5117355;28;19935;-90
2023/03/15 03:54:20;;;;;;;;;;;9.30;96.20;;;;;;5107576;28;19962;-91
2023/03/15 03:56:46;;;;;;;;;;;9.20;96.10;;;;;;5096774;28;19938;-90
2023/03/15 03:59:11;;;;;;;;;;;9.10;96.10;;;;;;5096813;28;20416;-90
2023/03/15 04:01:37;;;;;;;;;;;9.10;96.10;;;;;;5096640;28;19939;-90
2023/03/15 04:04:02;;;;;;;;;;;9.10;96.00;;;;;;5103174;28;19979;-90
2023/03/15 04:06:28;;;;;;;;;;;9.10;96.10;;;;;;5116919;28;19962;-90
2023/03/15 04:08:53;;;;;;;;;;;9.10;96.00;;;;;;5117010;28;19943;-90
2023/03/15 04:11:19;;;;;;;;;;;9.10;96.00;;;;;;5116960;28;19936;-90
2023/03/15 04:13:44;;;;;;;;;;;9.10;96.00;;;;;;5112511;28;20418;-90
2023/03/15 04:16:10;;;;;;;;;;;9.10;96.00;;;;;;5096361;28;19950;-91
2023/03/15 04:18:36;;;;;;;;;;;9.10;95.90;;;;;;5096413;28;19978;-90
2023/03/15 04:21:01;;;;;;;;;;;9.10;95.90;;;;;;5096368;28;19948;-91
2023/03/15 04:23:27;;;;;;;;;;;9.10;95.90;;;;;;5097451;28;19946;-90
2023/03/15 04:25:56;;;;;;;;;;;9.10;95.90;;;;;;5116237;28;20332;-90
2023/03/15 04:28:22;;;;;;;;;;;9.00;95.80;;;;;;5116879;28;20046;-90
2023/03/15 04:30:48;;;;;;;;;;;9.00;95.80;;;;;;5116623;28;20483;-90
2023/03/15 04:33:14;;;;;;;;;;;8.90;95.80;;;;;;5116094;28;19945;-90
2023/03/15 04:35:41;;;;;;;;;;;8.90;95.90;;;;;;5096014;28;20364;-90
2023/03/15 04:38:07;;;;;;;;;;;8.90;96.00;;;;;;5096020;28;19968;-90
2023/03/15 04:40:35;;;;;;;;;;;8.90;95.90;;;;;;5095986;28;20454;-90
2023/03/15 04:43:02;;;;;;;;;;;8.90;96.00;;;;;;5095867;28;19994;-90
2023/03/15 04:45:28;;;;;;;;;;;8.90;96.00;;;;;;5110089;28;20016;-90
2023/03/15 04:47:54;;;;;;;;;;;8.90;95.90;;;;;;5116287;28;19980;-90
2023/03/15 04:50:20;;;;;;;;;;;8.80;96.00;;;;;;5116484;28;20007;-90
2023/03/15 04:52:45;;;;;;;;;;;8.80;96.00;;;;;;5116044;28;19949;-90
2023/03/15 04:55:11;;;;;;;;;;;8.80;96.00;;;;;;5082339;28;20389;-90
2023/03/15 04:57:37;;;;;;;;;;;8.90;96.00;;;;;;5095684;28;19948;-90
2023/03/15 05:00:06;;;;;;;;;;;8.80;95.80;;;;;;5095600;28;19987;-91
2023/03/15 05:02:32;;;;;;;;;;;8.80;96.00;;;;;;5095410;28;20001;-91
2023/03/15 05:04:58;;;;;;;;;;;8.80;96.10;;;;;;5108279;28;20057;-90
2023/03/15 05:07:23;;;;;;;;;;;8.90;96.10;;;;;;5115888;28;19959;-90
2023/03/15 05:09:49;;;;;;;;;;;8.90;96.10;;;;;;5115800;28;20296;-90
2023/03/15 05:12:15;;;;;;;;;;;8.90;96.00;;;;;;5116002;28;19988;-91
2023/03/15 05:14:41;;;;;;;;;;;8.90;96.00;;;;;;5113388;28;20383;-91
2023/03/15 05:17:06;;;;;;;;;;;8.90;96.00;;;;;;5097523;28;20034;-91
2023/03/15 05:19:33;;;;;;;;;;;8.90;96.00;;;;;;5115686;28;19940;-91
2023/03/15 05:21:59;;;;;;;;;;;8.90;95.90;;;;;;5115605;28;20296;-91
2023/03/15 05:24:25;;;;;;;;;;;8.80;95.70;;;;;;5107522;28;19944;-90
2023/03/15 05:26:53;;;;;;;;;;;8.70;95.40;;;;;;5095044;28;20323;-90
2023/03/15 05:29:20;;;;;;;;;;;8.70;95.30;;;;;;5095281;28;19940;-91
2023/03/15 05:31:46;;;;;;;;;;;8.80;95.30;;;;;;5094990;28;19970;-89
2023/03/15 05:34:12;;;;;;;;;;;8.70;95.30;;;;;;5095124;28;19946;-89
2023/03/15 05:36:37;;;;;;;;;;;8.90;95.60;;;;;;5094887;28;19955;-89
2023/03/15 05:39:03;;;;;;;;;;;8.90;95.50;;;;;;5094798;28;19993;-90
2023/03/15 05:41:29;;;;;;;;;;;8.80;95.50;;;;;;5094827;28;20307;-90
2023/03/15 05:43:54;;;;;;;;;;;8.90;95.70;;;;;;5097527;28;20079;-89
2023/03/15 05:46:21;;;;;;;;;;;8.90;95.80;;;;;;5115138;28;19981;-90
2023/03/15 05:48:47;;;;;;;;;;;8.90;95.70;;;;;;5115015;28;19997;-89
2023/03/15 05:51:13;;;;;;;;;;;8.80;95.10;;;;;;5115059;28;20397;-90
2023/03/15 05:53:38;;;;;;;;;;;8.70;95.10;;;;;;5099940;28;19962;-89
2023/03/15 05:56:04;;;;;;;;;;;8.70;95.20;;;;;;5094474;28;19941;-89
2023/03/15 05:58:29;;;;;;;;;;;8.80;95.50;;;;;;5094411;28;20022;-90
2023/03/15 06:00:55;;;;;;;;;;;8.70;95.10;;;;;;5094105;28;19939;-89
2023/03/15 06:03:21;;;;;;;;;;;8.50;94.80;;;;;;5094405;28;20307;-89
2023/03/15 06:05:46;;;;;;;;;;;8.70;95.20;;;;;;5112144;28;20001;-89
2023/03/15 06:08:12;;;;;;;;;;;8.70;95.20;;;;;;5114331;28;19944;-89
2023/03/15 06:10:37;;;;;;;;;;;8.80;95.40;;;;;;5093312;28;19939;-89
2023/03/15 06:13:03;;;;;;;;;;;8.90;95.60;;;;;;5094165;28;19940;-90
2023/03/15 06:15:28;;;;;;;;;;;8.90;95.40;;;;;;5109304;28;19983;-89
2023/03/15 06:17:54;;;;;;;;;;;9.00;95.50;;;;;;5096653;28;20044;-89
2023/03/15 06:20:19;;;;;;;;;;;9.10;95.50;;;;;;5093449;28;19953;-89
2023/03/15 06:22:45;;;;;;;;;;;9.20;95.60;;;;;;5075528;28;19947;-89
2023/03/15 06:25:10;;;;;;;;;;;9.30;95.40;;;;;;5095085;28;19957;-89
2023/03/15 06:27:36;;;;;;;;;;;9.30;95.10;;;;;;5103190;28;20304;-89
2023/03/15 06:30:02;;;;;;;;;;;9.30;94.50;;;;;;5087518;28;19950;-89
2023/03/15 06:32:27;;;;;;;;;;;9.30;94.50;;;;;;5088804;28;19939;-89
2023/03/15 06:34:53;;;;;;;;;;;9.40;94.30;;;;;;5096643;28;20405;-89
2023/03/15 06:37:18;;;;;;;;;;;9.40;94.50;;;;;;5094286;28;19986;-89
2023/03/15 06:39:44;;;;;;;;;;;9.30;93.60;;;;;;5091183;28;19958;-89
2023/03/15 06:42:11;;;;;;;;;;;9.10;94.10;;;;;;5090962;28;19953;-89
2023/03/15 06:44:37;;;;;;;;;;;9.20;95.00;;;;;;5094731;28;19974;-88
2023/03/15 06:47:03;;;;;;;;;;;9.40;95.50;;;;;;5093411;28;20320;-89
2023/03/15 06:49:29;;;;;;;;;;;9.80;95.10;;;;;;5091372;28;19948;-88
2023/03/15 06:51:55;;;;;;;;;;;9.90;94.70;;;;;;5093198;28;20030;-89
2023/03/15 06:54:21;;;;;;;;;;;10.10;94.40;;;;;;5075679;28;19965;-89
2023/03/15 06:56:47;;;;;;;;;;;10.30;93.90;;;;;;5107337;28;20342;-89
2023/03/15 06:59:12;;;;;;;;;;;10.30;93.60;;;;;;5103220;28;19951;-89
2023/03/15 07:01:38;;;;;;;;;;;10.40;93.40;;;;;;5086751;28;19942;-89
2023/03/15 07:04:04;;;;;;;;;;;10.50;93.20;;;;;;5101832;22;19974;-89
2023/03/15 07:06:29;;;;;;;;;;;10.50;93.00;;;;;;5104242;28;19966;-89
2023/03/15 07:08:55;;;;;;;;;;;10.50;92.90;;;;;;5086910;28;19944;-89
2023/03/15 07:11:20;;;;;;;;;;;10.50;92.90;;;;;;5089567;28;19973;-89
2023/03/15 07:13:46;;;;;;;;;;;10.50;93.00;;;;;;5099926;28;20115;-89
2023/03/15 07:16:11;;;;;;;;;;;10.50;93.10;;;;;;5108648;28;19950;-89
2023/03/15 07:18:37;;;;;;;;;;;10.50;93.20;;;;;;5082866;28;20600;-89
2023/03/15 07:21:03;;;;;;;;;;;10.50;93.40;;;;;;5102268;28;19957;-89
2023/03/15 07:23:29;;;;;;;;;;;10.60;93.40;;;;;;5100941;28;19941;-89
2023/03/15 07:25:55;;;;;;;;;;;10.60;93.20;;;;;;5098845;28;20339;-89
2023/03/15 07:28:22;;;;;;;;;;;10.60;93.10;;;;;;5107946;28;19943;-89
2023/03/15 07:31:01;;;;;;;;;;;10.60;93.00;;;;;;5113607;28;19986;-89
2023/03/15 07:33:27;;;;;;;;;;;10.60;92.90;;;;;;5100920;28;19950;-89
2023/03/15 07:35:53;;;;;;;;;;;10.60;93.00;;;;;;5102773;28;19951;-88
2023/03/15 07:38:20;;;;;;;;;;;10.80;92.40;;;;;;5104718;28;20024;-89
2023/03/15 07:40:45;;;;;;;;;;;10.90;91.60;;;;;;5098812;28;19973;-89
2023/03/15 07:43:11;;;;;;;;;;;11.10;91.20;;;;;;5109500;28;20001;-89
2023/03/15 07:45:36;;;;;;;;;;;11.20;90.40;;;;;;5105975;28;20058;-90
2023/03/15 07:48:02;;;;;;;;;;;11.10;87.80;;;;;;5108384;28;19993;-89
2023/03/15 07:50:27;;;;;;;;;;;11.30;86.70;;;;;;5112284;28;19950;-89
2023/03/15 07:52:53;;;;;;;;;;;11.30;88.30;;;;;;5092929;28;19966;-88
2023/03/15 07:55:19;;;;;;;;;;;11.30;88.70;;;;;;5099709;28;19964;-89
2023/03/15 07:57:44;;;;;;;;;;;11.40;90.20;;;;;;5110858;28;19945;-89
2023/03/15 08:00:12;;;;;;;;;;;11.40;90.80;;;;;;5111169;28;19943;-89
2023/03/15 08:02:38;;;;;;;;;;;11.50;90.90;;;;;;5108666;28;21163;-89
2023/03/15 08:05:04;;;;;;;;;;;11.60;91.20;;;;;;5100372;28;19970;-90
2023/03/15 08:07:29;;;;;;;;;;;11.60;91.10;;;;;;5111717;28;19965;-90
2023/03/15 08:09:57;;;;;;;;;;;11.70;91.10;;;;;;5117381;28;20402;-89
2023/03/15 08:12:25;;;;;;;;;;;11.80;91.10;;;;;;5116376;28;19950;-89
2023/03/15 08:14:51;;;;;;;;;;;11.90;90.40;;;;;;5104023;28;19950;-89
2023/03/15 08:17:17;;;;;;;;;;;11.90;90.00;;;;;;5107999;28;20036;-89
2023/03/15 08:19:43;;;;;;;;;;;11.90;89.40;;;;;;5110428;28;20029;-89
2023/03/15 08:22:09;;;;;;;;;;;12.00;89.40;;;;;;5115157;28;19985;-89
2023/03/15 08:24:34;;;;;;;;;;;12.20;89.00;;;;;;5113493;28;19952;-89
2023/03/15 08:27:00;;;;;;;;;;;12.30;88.40;;;;;;5113586;28;20381;-89
2023/03/15 08:29:25;;;;;;;;;;;12.20;88.20;;;;;;5109439;28;19951;-89
2023/03/15 08:31:51;;;;;;;;;;;12.20;88.30;;;;;;5115967;28;19961;-89
2023/03/15 08:34:16;;;;;;;;;;;12.10;88.20;;;;;;5110878;28;20425;-90
2023/03/15 08:36:42;;;;;;;;;;;12.00;88.60;;;;;;5108566;28;19989;-90
2023/03/15 08:39:07;;;;;;;;;;;12.20;89.20;;;;;;5106121;28;20223;-90
2023/03/15 08:41:33;;;;;;;;;;;12.30;89.40;;;;;;5114313;28;20553;-89
2023/03/15 08:43:59;;;;;;;;;;;12.40;89.40;;;;;;5104230;28;19991;-90
2023/03/15 08:46:25;;;;;;;;;;;12.60;89.90;;;;;;5102285;28;19959;-90
2023/03/15 08:48:51;;;;;;;;;;;12.70;90.10;;;;;;5108664;28;19950;-89
2023/03/15 08:51:18;;;;;;;;;;;13.00;89.80;;;;;;5105098;28;19987;-89
2023/03/15 08:53:44;;;;;;;;;;;13.20;87.30;;;;;;5110119;28;19961;-90
2023/03/15 08:56:09;;;;;;;;;;;13.40;83.60;;;;;;5106504;28;20303;-89
2023/03/15 08:58:35;;;;;;;;;;;13.50;81.00;;;;;;5109335;28;19941;-90
2023/03/15 09:01:01;;;;;;;;;;;13.70;79.40;;;;;;5104152;28;19953;-90
2023/03/15 09:03:26;;;;;;;;;;;13.90;79.60;;;;;;5110934;28;19964;-90
2023/03/15 09:05:56;;;;;;;;;;;14.00;77.20;;;;;;5091074;28;19961;-89
2023/03/15 09:08:24;;;;;;;;;;;14.00;79.20;;;;;;5094745;28;19951;-89
2023/03/15 09:10:55;;;;;;;;;;;13.40;81.40;;;;;;5091745;28;20013;-89
2023/03/15 09:13:22;;;;;;;;;;;12.90;73.70;;;;;;5110416;28;20002;-89
2023/03/15 09:15:51;;;;;;;;;;;12.80;71.00;;;;;;5091275;28;20036;-89
2023/03/15 09:18:17;;;;;;;;;;;12.50;69.00;;;;;;5101871;28;19969;-89
2023/03/15 09:20:43;;;;;;;;;;;12.10;68.40;;;;;;5102892;28;20322;-89
2023/03/15 09:23:08;;;;;;;;;;;12.00;68.80;;;;;;5108791;28;19947;-89
2023/03/15 09:25:35;;;;;;;;;;;11.90;67.50;;;;;;5110945;28;19960;-89
2023/03/15 09:28:01;;;;;;;;;;;11.50;66.30;;;;;;5108499;28;19972;-90
2023/03/15 09:30:27;;;;;;;;;;;11.30;66.90;;;;;;5104102;28;19998;-90
2023/03/15 09:32:53;;;;;;;;;;;11.00;68.20;;;;;;5104723;28;19990;-89
2023/03/15 09:35:19;;;;;;;;;;;10.80;69.00;;;;;;5109639;28;19948;-88
2023/03/15 09:37:46;;;;;;;;;;;10.50;71.20;;;;;;5107812;28;19948;-89
2023/03/15 09:40:17;;;;;;;;;;;10.20;72.00;;;;;;5111224;28;20481;-89
2023/03/15 09:43:02;;;;;;;;;;;10.10;72.80;;;;;;5102390;28;19947;-88
2023/03/15 09:45:27;;;;;;;;;;;10.00;73.50;;;;;;5095744;28;19975;-88
2023/03/15 09:48:02;;;;;;;;;;;10.20;75.30;;;;;;5104533;28;19982;-88
2023/03/15 09:50:32;;;;;;;;;;;10.20;75.00;;;;;;5110854;28;19950;-89
2023/03/15 09:53:03;;;;;;;;;;;10.30;75.80;;;;;;5099679;28;20057;-88
2023/03/15 09:55:29;;;;;;;;;;;10.40;76.60;;;;;;5106178;28;19945;-90
2023/03/15 09:58:11;;;;;;;;;;;10.50;76.40;;;;;;5103457;28;19943;-90
2023/03/15 10:00:42;;;;;;;;;;;10.60;75.70;;;;;;5104038;28;19950;-89
2023/03/15 10:03:14;;;;;;;;;;;10.80;74.90;;;;;;5102095;28;19982;-89
2023/03/15 10:05:44;;;;;;;;;;;10.90;76.40;;;;;;5107556;28;20023;-90
2023/03/15 10:08:11;;;;;;;;;;;10.90;76.30;;;;;;5085767;28;20430;-89
2023/03/15 10:10:39;;;;;;;;;;;11.20;75.10;;;;;;5088836;28;20330;-89
2023/03/15 10:13:05;;;;;;;;;;;11.40;76.20;;;;;;5087647;28;20411;-88
2023/03/15 10:15:30;;;;;;;;;;;11.60;75.60;;;;;;5106856;28;19988;-88
2023/03/15 10:17:58;;;;;;;;;;;11.70;76.00;;;;;;5105268;28;19955;-88
2023/03/15 10:20:25;;;;;;;;;;;11.90;70.10;;;;;;5110574;28;19944;-88
2023/03/15 10:23:11;;;;;;;;;;;12.00;70.10;;;;;;5109937;28;19939;-88
2023/03/15 10:25:37;;;;;;;;;;;12.20;70.70;;;;;;5105742;28;20055;-89
2023/03/15 10:28:21;;;;;;;;;;;12.40;68.30;;;;;;5105463;28;19988;-89
2023/03/15 10:30:48;;;;;;;;;;;12.50;67.90;;;;;;5084792;28;20024;-89
2023/03/15 10:33:32;;;;;;;;;;;12.90;69.30;;;;;;5106272;28;20057;-89
2023/03/15 10:35:58;;;;;;;;;;;13.10;65.40;;;;;;5109165;28;19955;-88
2023/03/15 10:38:24;;;;;;;;;;;13.40;64.90;;;;;;5103580;28;19939;-89
2023/03/15 10:40:57;;;;;;;;;;;13.30;67.70;;;;;;5100846;28;20291;-89
2023/03/15 10:43:22;;;;;;;;;;;13.30;65.00;;;;;;5105563;28;19992;-89
2023/03/15 10:46:01;;;;;;;;;;;13.30;64.30;;;;;;5105700;28;20045;-90
2023/03/15 10:48:28;;;;;;;;;;;13.40;67.70;;;;;;5105332;28;19938;-89
2023/03/15 10:50:55;;;;;;;;;;;13.40;62.60;;;;;;5105218;28;19951;-89
2023/03/15 10:53:21;;;;;;;;;;;13.20;65.70;;;;;;5083599;28;20320;-89
2023/03/15 10:55:47;;;;;;;;;;;13.00;63.40;;;;;;5104702;28;19938;-89
2023/03/15 10:58:19;;;;;;;;;;;13.10;64.30;;;;;;5110204;28;19992;-90
2023/03/15 11:00:53;;;;;;;;;;;13.00;63.00;;;;;;5112145;28;20037;-89
2023/03/15 11:03:20;;;;;;;;;;;13.00;63.60;;;;;;5088179;28;20310;-89
2023/03/15 11:05:48;;;;;;;;;;;12.90;64.10;;;;;;5108441;28;19966;-88
2023/03/15 11:08:15;;;;;;;;;;;13.00;67.70;;;;;;5102160;28;19947;-88
2023/03/15 11:10:41;;;;;;;;;;;12.90;63.90;;;;;;5107824;28;19951;-88
2023/03/15 11:13:12;;;;;;;;;;;12.90;60.40;;;;;;5113042;28;19950;-88
2023/03/15 11:15:39;;;;;;;;;;;13.10;69.40;;;;;;5113381;28;20402;-88
2023/03/15 11:18:05;;;;;;;;;;;13.00;69.50;;;;;;5113344;28;20400;-88
2023/03/15 11:20:35;;;;;;;;;;;13.00;67.70;;;;;;5113451;28;20068;-88
2023/03/15 11:23:20;;;;;;;;;;;13.10;69.40;;;;;;5113177;28;20404;-89
2023/03/15 11:25:46;;;;;;;;;;;13.10;64.20;;;;;;5112713;28;19971;-88
2023/03/15 11:28:15;;;;;;;;;;;12.90;69.10;;;;;;5113440;28;19943;-89
2023/03/15 11:30:42;;;;;;;;;;;12.80;66.60;;;;;;5113687;28;19941;-89
2023/03/15 11:33:08;;;;;;;;;;;12.90;65.20;;;;;;5113341;28;20395;-89
2023/03/15 11:35:46;;;;;;;;;;;13.00;64.40;;;;;;5113277;28;20418;-89
2023/03/15 11:38:23;;;;;;;;;;;13.10;63.60;;;;;;5113338;28;20003;-90
2023/03/15 11:40:52;;;;;;;;;;;13.20;62.40;;;;;;5113047;28;19936;-90
2023/03/15 11:43:26;;;;;;;;;;;13.60;62.40;;;;;;5114399;28;19942;-89
2023/03/15 11:46:00;;;;;;;;;;;14.00;61.90;;;;;;5117380;28;20054;-90
2023/03/15 11:48:26;;;;;;;;;;;14.10;61.50;;;;;;5117341;28;19938;-89
2023/03/15 11:50:52;;;;;;;;;;;14.20;60.20;;;;;;5117367;28;19967;-90
2023/03/15 11:53:19;;;;;;;;;;;14.30;58.80;;;;;;5117384;28;19959;-90
2023/03/15 11:55:49;;;;;;;;;;;14.40;62.40;;;;;;5117253;28;19935;-90
2023/03/15 11:58:34;;;;;;;;;;;14.60;54.00;;;;;;5117147;28;20028;-89
2023/03/15 12:01:03;;;;;;;;;;;14.60;55.30;;;;;;5116773;28;19942;-89
2023/03/15 12:03:34;;;;;;;;;;;14.60;64.40;;;;;;5116455;28;19977;-90
2023/03/15 12:06:00;;;;;;;;;;;14.40;57.60;;;;;;5115991;28;19960;-89
2023/03/15 12:08:33;;;;;;;;;;;14.20;57.40;;;;;;5098647;28;19940;-89
2023/03/15 12:10:59;;;;;;;;;;;14.30;57.50;;;;;;5116954;28;20033;-89
2023/03/15 12:13:26;;;;;;;;;;;14.40;60.00;;;;;;5116408;28;19985;-89
2023/03/15 12:15:52;;;;;;;;;;;14.40;58.90;;;;;;5116814;28;19949;-89
2023/03/15 12:18:23;;;;;;;;;;;14.60;60.90;;;;;;5116820;28;19936;-89
2023/03/15 12:21:21;;;;;;;;;;;15.00;58.60;;;;;;5116808;28;19941;-90
2023/03/15 12:23:47;;;;;;;;;;;14.80;58.20;;;;;;5060321;28;19980;-90
2023/03/15 12:26:22;;;;;;;;;;;14.90;59.90;;;;;;5116384;28;19966;-89
2023/03/15 12:28:52;;;;;;;;;;;15.10;58.80;;;;;;5099840;28;20437;-90
2023/03/15 12:31:18;;;;;;;;;;;15.20;59.80;;;;;;5103520;28;19948;-89
2023/03/15 12:33:51;;;;;;;;;;;15.40;59.50;;;;;;5107142;28;19945;-90
2023/03/15 12:36:33;;;;;;;;;;;15.70;56.20;;;;;;5103789;28;19995;-90
2023/03/15 12:39:19;;;;;;;;;;;16.30;55.70;;;;;;5102838;28;19965;-89
2023/03/15 12:41:47;;;;;;;;;;;16.70;51.50;;;;;;5104483;28;19963;-89
2023/03/15 12:44:18;;;;;;;;;;;16.80;52.00;;;;;;5106727;28;19943;-89
2023/03/15 12:46:43;;;;;;;;;;;17.20;51.10;;;;;;5084292;28;19968;-89
2023/03/15 12:49:10;;;;;;;;;;;17.40;50.20;;;;;;5102577;28;19951;-89
2023/03/15 12:51:52;;;;;;;;;;;17.60;51.50;;;;;;5104301;28;19946;-89
2023/03/15 12:54:19;;;;;;;;;;;17.30;51.20;;;;;;5106895;28;20403;-90
2023/03/15 12:56:53;;;;;;;;;;;18.10;49.00;;;;;;5107309;28;19943;-90
2023/03/15 12:59:22;;;;;;;;;;;18.50;46.50;;;;;;5112391;28;19980;-89
2023/03/15 13:01:49;;;;;;;;;;;18.30;50.80;;;;;;5105869;28;19977;-89
2023/03/15 13:04:15;;;;;;;;;;;18.10;50.30;;;;;;5107415;28;20434;-89
2023/03/15 13:06:48;;;;;;;;;;;18.30;46.90;;;;;;5108433;28;19998;-90
2023/03/15 13:09:29;;;;;;;;;;;18.20;48.60;;;;;;5106645;28;19939;-89
2023/03/15 13:12:07;;;;;;;;;;;18.30;45.90;;;;;;5107028;28;19950;-89
2023/03/15 13:14:51;;;;;;;;;;;18.00;45.30;;;;;;5102809;28;19963;-89
2023/03/15 13:17:28;;;;;;;;;;;18.40;44.90;;;;;;5103631;27;19950;-90
2023/03/15 13:20:23;;;;;;;;;;;19.70;41.90;;;;;;5109891;28;19943;-90
2023/03/15 13:22:54;;;;;;;;;;;20.80;41.90;;;;;;5014169;28;19954;-89
2023/03/15 13:25:34;;;;;;;;;;;20.90;36.70;;;;;;5108223;28;19943;-89
2023/03/15 13:28:12;;;;;;;;;;;21.40;35.90;;;;;;5087399;28;19945;-90
2023/03/15 13:30:49;;;;;;;;;;;21.80;36.80;;;;;;5107251;28;19949;-90
2023/03/15 13:33:23;;;;;;;;;;;21.80;33.50;;;;;;5097739;28;19965;-90
2023/03/15 13:35:48;;;;;;;;;;;22.10;34.10;;;;;;5089566;28;19948;-90
2023/03/15 13:38:33;;;;;;;;;;;22.30;35.40;;;;;;5106834;28;19946;-89
2023/03/15 13:41:00;;;;;;;;;;;21.50;33.60;;;;;;5107516;28;20400;-89
2023/03/15 13:43:28;;;;;;;;;;;21.30;33.40;;;;;;5105557;28;19947;-89
2023/03/15 13:45:55;;;;;;;;;;;21.50;33.00;;;;;;5108245;28;19959;-90
2023/03/15 13:48:21;;;;;;;;;;;22.30;33.70;;;;;;5105427;28;19949;-90
2023/03/15 13:50:47;;;;;;;;;;;22.50;33.80;;;;;;5106333;28;20316;-90
2023/03/15 13:53:17;;;;;;;;;;;22.70;33.90;;;;;;5104740;28;19962;-90
2023/03/15 13:55:47;;;;;;;;;;;23.10;34.20;;;;;;5106384;28;19944;-90
2023/03/15 13:58:13;;;;;;;;;;;22.90;33.10;;;;;;5095876;28;20033;-90
2023/03/15 14:00:39;;;;;;;;;;;22.80;32.70;;;;;;5103730;28;20037;-89
2023/03/15 14:03:05;;;;;;;;;;;21.90;35.40;;;;;;5101126;28;19990;-90
2023/03/15 14:05:35;;;;;;;;;;;22.00;34.10;;;;;;5103551;28;20099;-90
2023/03/15 14:08:14;;;;;;;;;;;22.80;30.70;;;;;;5101255;28;19959;-89
2023/03/15 14:10:39;;;;;;;;;;;22.40;32.90;;;;;;5103308;28;20424;-89
2023/03/15 14:13:15;;;;;;;;;;;21.80;35.10;;;;;;5097832;28;19948;-89
2023/03/15 14:15:44;;;;;;;;;;;21.20;33.70;;;;;;5091478;28;19944;-89
2023/03/15 14:18:10;;;;;;;;;;;21.40;36.40;;;;;;5090763;28;20375;-89
2023/03/15 14:20:39;;;;;;;;;;;21.70;35.90;;;;;;5103693;28;19950;-89
2023/03/15 14:23:08;;;;;;;;;;;21.70;33.60;;;;;;5083643;28;19953;-90
2023/03/15 14:25:35;;;;;;;;;;;21.70;29.80;;;;;;5085255;28;19955;-90